sensor_id;sensor_type;location;lat;lon;timestamp;temperature;humidity
21318;DHT22;10818;50.830;6.524;2023-08-06T00:02:39;17.30;99.90
21318;DHT22;10818;50.830;6.524;2023-08-06T00:07:39;17.20;99.90
21318;DHT22;10818;50.830;6.524;2023-08-06T00:12:40;17.00;99.90
21318;DHT22;10818;50.830;6.524;2023-08-06T00:17:40;17.00;99.90
21318;DHT22;10818;50.830;6.524;2023-08-06T00:22:41;17.00;99.90
21318;DHT22;10818;50.830;6.524;2023-08-06T00:27:41;17.00;99.90
21318;DHT22;10818;50.830;6.524;2023-08-06T00:32:42;17.10;99.90
21318;DHT22;10818;50.830;6.524;2023-08-06T00:37:42;17.00;99.90
21318;DHT22;10818;50.830;6.524;2023-08-06T00:42:43;17.00;99.90
21318;DHT22;10818;50.830;6.524;2023-08-06T00:47:45;16.90;99.90
21318;DHT22;10818;50.830;6.524;2023-08-06T00:52:46;16.80;99.90
21318;DHT22;10818;50.830;6.524;2023-08-06T00:57:46;16.80;99.90
21318;DHT22;10818;50.830;6.524;2023-08-06T01:02:48;16.70;99.90
21318;DHT22;10818;50.830;6.524;2023-08-06T01:12:55;16.50;99.90
21318;DHT22;10818;50.830;6.524;2023-08-06T01:18:00;16.50;99.90
21318;DHT22;10818;50.830;6.524;2023-08-06T01:23:01;16.50;99.90
21318;DHT22;10818;50.830;6.524;2023-08-06T01:28:06;16.60;99.90
21318;DHT22;10818;50.830;6.524;2023-08-06T01:33:07;16.60;99.90
21318;DHT22;10818;50.830;6.524;2023-08-06T01:38:10;16.60;99.90
21318;DHT22;10818;50.830;6.524;2023-08-06T01:43:10;16.70;99.90
21318;DHT22;10818;50.830;6.524;2023-08-06T01:48:11;16.70;99.90
21318;DHT22;10818;50.830;6.524;2023-08-06T01:53:11;16.80;99.90
21318;DHT22;10818;50.830;6.524;2023-08-06T01:58:12;16.90;99.90
21318;DHT22;10818;50.830;6.524;2023-08-06T02:03:12;17.00;99.90
21318;DHT22;10818;50.830;6.524;2023-08-06T02:08:12;17.00;99.90
21318;DHT22;10818;50.830;6.524;2023-08-06T02:13:13;16.90;99.90
21318;DHT22;10818;50.830;6.524;2023-08-06T02:18:14;17.00;99.90
21318;DHT22;10818;50.830;6.524;2023-08-06T02:23:15;17.00;99.90
21318;DHT22;10818;50.830;6.524;2023-08-06T02:28:15;17.00;99.90
21318;DHT22;10818;50.830;6.524;2023-08-06T02:33:16;17.10;99.90
21318;DHT22;10818;50.830;6.524;2023-08-06T02:38:16;17.10;99.90
21318;DHT22;10818;50.830;6.524;2023-08-06T02:43:17;17.10;99.90
21318;DHT22;10818;50.830;6.524;2023-08-06T02:48:17;17.10;99.90
21318;DHT22;10818;50.830;6.524;2023-08-06T02:53:18;17.20;99.90
21318;DHT22;10818;50.830;6.524;2023-08-06T02:58:18;17.40;99.90
21318;DHT22;10818;50.830;6.524;2023-08-06T03:03:22;17.20;99.90
21318;DHT22;10818;50.830;6.524;2023-08-06T03:08:23;17.10;99.90
21318;DHT22;10818;50.830;6.524;2023-08-06T03:13:23;16.90;99.90
21318;DHT22;10818;50.830;6.524;2023-08-06T03:18:24;16.90;99.90
21318;DHT22;10818;50.830;6.524;2023-08-06T03:23:26;16.90;99.90
21318;DHT22;10818;50.830;6.524;2023-08-06T03:28:26;16.80;99.90
21318;DHT22;10818;50.830;6.524;2023-08-06T03:33:27;16.80;99.90
21318;DHT22;10818;50.830;6.524;2023-08-06T03:38:27;16.70;99.90
21318;DHT22;10818;50.830;6.524;2023-08-06T03:43:28;16.60;99.90
21318;DHT22;10818;50.830;6.524;2023-08-06T03:48:28;16.70;99.90
21318;DHT22;10818;50.830;6.524;2023-08-06T03:53:29;16.90;99.90
21318;DHT22;10818;50.830;6.524;2023-08-06T03:58:29;16.80;99.90
21318;DHT22;10818;50.830;6.524;2023-08-06T04:03:30;16.80;99.90
21318;DHT22;10818;50.830;6.524;2023-08-06T04:08:30;16.80;99.90
21318;DHT22;10818;50.830;6.524;2023-08-06T04:13:32;16.70;99.90
21318;DHT22;10818;50.830;6.524;2023-08-06T04:18:32;16.70;99.90
21318;DHT22;10818;50.830;6.524;2023-08-06T04:23:33;16.60;99.90
21318;DHT22;10818;50.830;6.524;2023-08-06T04:28:33;16.60;99.90
21318;DHT22;10818;50.830;6.524;2023-08-06T04:33:34;16.80;99.90
21318;DHT22;10818;50.830;6.524;2023-08-06T04:38:34;16.60;99.90
21318;DHT22;10818;50.830;6.524;2023-08-06T04:43:34;16.80;99.90
21318;DHT22;10818;50.830;6.524;2023-08-06T04:48:35;16.70;99.90
21318;DHT22;10818;50.830;6.524;2023-08-06T04:53:35;16.60;99.90
21318;DHT22;10818;50.830;6.524;2023-08-06T04:58:36;16.70;99.90
21318;DHT22;10818;50.830;6.524;2023-08-06T05:03:36;16.70;99.90
21318;DHT22;10818;50.830;6.524;2023-08-06T05:08:37;16.60;99.90
21318;DHT22;10818;50.830;6.524;2023-08-06T05:13:37;16.70;99.90
21318;DHT22;10818;50.830;6.524;2023-08-06T05:18:38;16.70;99.90
21318;DHT22;10818;50.830;6.524;2023-08-06T05:23:38;16.70;99.90
21318;DHT22;10818;50.830;6.524;2023-08-06T05:28:39;16.70;99.90
21318;DHT22;10818;50.830;6.524;2023-08-06T05:33:41;16.60;99.90
21318;DHT22;10818;50.830;6.524;2023-08-06T05:38:41;16.70;99.90
21318;DHT22;10818;50.830;6.524;2023-08-06T05:43:42;16.70;99.90
21318;DHT22;10818;50.830;6.524;2023-08-06T05:48:42;16.70;99.90
21318;DHT22;10818;50.830;6.524;2023-08-06T05:53:43;16.90;99.90
21318;DHT22;10818;50.830;6.524;2023-08-06T05:58:43;17.10;99.90
21318;DHT22;10818;50.830;6.524;2023-08-06T06:03:44;17.20;99.90
21318;DHT22;10818;50.830;6.524;2023-08-06T06:08:44;17.40;99.90
21318;DHT22;10818;50.830;6.524;2023-08-06T06:13:45;17.70;99.90
21318;DHT22;10818;50.830;6.524;2023-08-06T06:18:45;18.10;99.90
21318;DHT22;10818;50.830;6.524;2023-08-06T06:23:46;18.40;99.90
21318;DHT22;10818;50.830;6.524;2023-08-06T06:28:46;18.50;99.90
21318;DHT22;10818;50.830;6.524;2023-08-06T06:33:47;18.50;99.90
21318;DHT22;10818;50.830;6.524;2023-08-06T06:38:47;18.50;99.90
21318;DHT22;10818;50.830;6.524;2023-08-06T06:43:49;18.30;99.90
21318;DHT22;10818;50.830;6.524;2023-08-06T06:48:49;18.20;99.90
21318;DHT22;10818;50.830;6.524;2023-08-06T06:53:50;18.20;99.90
21318;DHT22;10818;50.830;6.524;2023-08-06T06:58:50;18.20;99.90
21318;DHT22;10818;50.830;6.524;2023-08-06T07:03:51;18.20;99.90
21318;DHT22;10818;50.830;6.524;2023-08-06T07:08:51;18.40;99.90
21318;DHT22;10818;50.830;6.524;2023-08-06T07:13:58;18.50;99.90
21318;DHT22;10818;50.830;6.524;2023-08-06T07:18:59;18.60;99.90
21318;DHT22;10818;50.830;6.524;2023-08-06T07:24:00;18.80;99.90
21318;DHT22;10818;50.830;6.524;2023-08-06T07:29:00;19.00;99.90
21318;DHT22;10818;50.830;6.524;2023-08-06T07:34:00;18.80;99.90
21318;DHT22;10818;50.830;6.524;2023-08-06T07:39:01;18.80;99.90
21318;DHT22;10818;50.830;6.524;2023-08-06T07:44:01;18.70;99.90
21318;DHT22;10818;50.830;6.524;2023-08-06T07:49:02;18.60;99.90
21318;DHT22;10818;50.830;6.524;2023-08-06T07:54:03;18.80;99.90
21318;DHT22;10818;50.830;6.524;2023-08-06T07:59:03;19.00;99.90
21318;DHT22;10818;50.830;6.524;2023-08-06T08:04:03;19.10;99.90
21318;DHT22;10818;50.830;6.524;2023-08-06T08:09:05;19.10;99.90
21318;DHT22;10818;50.830;6.524;2023-08-06T08:14:05;19.30;99.90
21318;DHT22;10818;50.830;6.524;2023-08-06T08:19:06;19.40;99.90
21318;DHT22;10818;50.830;6.524;2023-08-06T08:24:06;19.40;99.90
21318;DHT22;10818;50.830;6.524;2023-08-06T08:29:07;18.90;99.90
21318;DHT22;10818;50.830;6.524;2023-08-06T08:34:07;18.40;99.90
21318;DHT22;10818;50.830;6.524;2023-08-06T08:39:08;18.10;99.90
21318;DHT22;10818;50.830;6.524;2023-08-06T08:44:09;18.00;99.90
21318;DHT22;10818;50.830;6.524;2023-08-06T08:49:12;17.90;99.90
21318;DHT22;10818;50.830;6.524;2023-08-06T08:54:13;18.10;99.90
21318;DHT22;10818;50.830;6.524;2023-08-06T08:59:13;17.80;99.90
21318;DHT22;10818;50.830;6.524;2023-08-06T09:04:14;17.70;99.90
21318;DHT22;10818;50.830;6.524;2023-08-06T09:09:22;17.40;99.90
21318;DHT22;10818;50.830;6.524;2023-08-06T09:14:26;17.30;99.90
21318;DHT22;10818;50.830;6.524;2023-08-06T09:19:26;16.70;99.90
21318;DHT22;10818;50.830;6.524;2023-08-06T09:24:27;16.50;99.90
21318;DHT22;10818;50.830;6.524;2023-08-06T09:29:28;16.30;99.90
21318;DHT22;10818;50.830;6.524;2023-08-06T09:34:31;16.10;99.90
21318;DHT22;10818;50.830;6.524;2023-08-06T09:39:31;16.10;99.90
21318;DHT22;10818;50.830;6.524;2023-08-06T09:44:32;16.10;99.90
21318;DHT22;10818;50.830;6.524;2023-08-06T09:54:33;15.60;99.90
21318;DHT22;10818;50.830;6.524;2023-08-06T09:59:35;15.40;99.90
21318;DHT22;10818;50.830;6.524;2023-08-06T10:04:37;15.30;99.90
21318;DHT22;10818;50.830;6.524;2023-08-06T10:09:37;15.40;99.90
21318;DHT22;10818;50.830;6.524;2023-08-06T10:14:38;15.30;99.90
21318;DHT22;10818;50.830;6.524;2023-08-06T10:19:40;15.30;99.90
21318;DHT22;10818;50.830;6.524;2023-08-06T10:24:56;15.50;99.90
21318;DHT22;10818;50.830;6.524;2023-08-06T10:40:36;15.30;99.90
21318;DHT22;10818;50.830;6.524;2023-08-06T10:45:37;15.40;99.90
21318;DHT22;10818;50.830;6.524;2023-08-06T10:50:38;15.40;99.90
21318;DHT22;10818;50.830;6.524;2023-08-06T10:55:38;15.50;99.90
21318;DHT22;10818;50.830;6.524;2023-08-06T11:00:39;15.70;99.90
21318;DHT22;10818;50.830;6.524;2023-08-06T11:05:39;16.00;99.90
21318;DHT22;10818;50.830;6.524;2023-08-06T11:10:40;16.20;99.90
21318;DHT22;10818;50.830;6.524;2023-08-06T11:15:40;16.20;99.90
21318;DHT22;10818;50.830;6.524;2023-08-06T11:20:41;16.40;99.90
21318;DHT22;10818;50.830;6.524;2023-08-06T11:25:45;16.60;99.90
21318;DHT22;10818;50.830;6.524;2023-08-06T11:30:46;16.70;99.90
21318;DHT22;10818;50.830;6.524;2023-08-06T11:35:46;16.90;99.90
21318;DHT22;10818;50.830;6.524;2023-08-06T11:40:47;17.10;99.90
21318;DHT22;10818;50.830;6.524;2023-08-06T11:45:49;17.10;99.90
21318;DHT22;10818;50.830;6.524;2023-08-06T11:50:49;17.30;99.90
21318;DHT22;10818;50.830;6.524;2023-08-06T11:55:54;17.40;99.90
21318;DHT22;10818;50.830;6.524;2023-08-06T12:00:54;17.70;99.90
21318;DHT22;10818;50.830;6.524;2023-08-06T12:05:56;17.70;99.90
21318;DHT22;10818;50.830;6.524;2023-08-06T12:10:56;17.90;99.90
21318;DHT22;10818;50.830;6.524;2023-08-06T12:15:57;18.00;99.90
21318;DHT22;10818;50.830;6.524;2023-08-06T12:20:58;18.30;99.90
21318;DHT22;10818;50.830;6.524;2023-08-06T12:25:58;18.20;99.90
21318;DHT22;10818;50.830;6.524;2023-08-06T12:30:59;18.40;99.90
21318;DHT22;10818;50.830;6.524;2023-08-06T12:35:59;18.30;99.90
21318;DHT22;10818;50.830;6.524;2023-08-06T12:41:00;18.40;99.90
21318;DHT22;10818;50.830;6.524;2023-08-06T12:46:00;18.50;99.90
21318;DHT22;10818;50.830;6.524;2023-08-06T12:51:01;18.40;99.90
21318;DHT22;10818;50.830;6.524;2023-08-06T12:56:01;18.20;99.90
21318;DHT22;10818;50.830;6.524;2023-08-06T13:01:02;18.00;99.90
21318;DHT22;10818;50.830;6.524;2023-08-06T13:06:02;18.10;99.90
21318;DHT22;10818;50.830;6.524;2023-08-06T13:11:03;18.20;99.90
21318;DHT22;10818;50.830;6.524;2023-08-06T13:16:03;18.20;99.90
21318;DHT22;10818;50.830;6.524;2023-08-06T13:21:04;18.30;99.90
21318;DHT22;10818;50.830;6.524;2023-08-06T13:26:04;18.30;99.90
21318;DHT22;10818;50.830;6.524;2023-08-06T13:31:05;18.20;99.90
21318;DHT22;10818;50.830;6.524;2023-08-06T13:36:05;18.10;99.90
21318;DHT22;10818;50.830;6.524;2023-08-06T13:41:05;17.60;99.90
21318;DHT22;10818;50.830;6.524;2023-08-06T13:46:06;17.40;99.90
21318;DHT22;10818;50.830;6.524;2023-08-06T13:51:06;17.70;99.90
21318;DHT22;10818;50.830;6.524;2023-08-06T13:56:07;18.10;99.90
21318;DHT22;10818;50.830;6.524;2023-08-06T14:01:10;18.20;99.90
21318;DHT22;10818;50.830;6.524;2023-08-06T14:06:11;18.20;99.90
21318;DHT22;10818;50.830;6.524;2023-08-06T14:11:11;18.10;99.90
21318;DHT22;10818;50.830;6.524;2023-08-06T14:16:12;18.10;99.90
21318;DHT22;10818;50.830;6.524;2023-08-06T14:21:12;17.90;99.90
21318;DHT22;10818;50.830;6.524;2023-08-06T14:26:13;18.00;99.90
21318;DHT22;10818;50.830;6.524;2023-08-06T14:31:15;18.00;99.90
21318;DHT22;10818;50.830;6.524;2023-08-06T14:36:15;17.70;99.90
21318;DHT22;10818;50.830;6.524;2023-08-06T14:41:16;17.50;99.90
21318;DHT22;10818;50.830;6.524;2023-08-06T14:46:17;17.20;99.90
21318;DHT22;10818;50.830;6.524;2023-08-06T14:51:17;17.40;99.90
21318;DHT22;10818;50.830;6.524;2023-08-06T14:56:20;17.30;99.90
21318;DHT22;10818;50.830;6.524;2023-08-06T15:01:20;17.20;99.90
21318;DHT22;10818;50.830;6.524;2023-08-06T15:06:21;17.00;99.90
21318;DHT22;10818;50.830;6.524;2023-08-06T15:11:21;17.30;99.90
21318;DHT22;10818;50.830;6.524;2023-08-06T15:16:22;17.60;99.90
21318;DHT22;10818;50.830;6.524;2023-08-06T15:21:22;18.00;99.90
21318;DHT22;10818;50.830;6.524;2023-08-06T15:26:23;17.80;99.90
21318;DHT22;10818;50.830;6.524;2023-08-06T15:31:23;17.70;99.90
21318;DHT22;10818;50.830;6.524;2023-08-06T15:36:23;17.50;99.90
21318;DHT22;10818;50.830;6.524;2023-08-06T15:41:24;17.40;99.90
21318;DHT22;10818;50.830;6.524;2023-08-06T15:46:24;17.50;99.90
21318;DHT22;10818;50.830;6.524;2023-08-06T15:51:25;17.40;99.90
21318;DHT22;10818;50.830;6.524;2023-08-06T15:56:25;17.10;99.90
21318;DHT22;10818;50.830;6.524;2023-08-06T16:01:26;17.20;99.90
21318;DHT22;10818;50.830;6.524;2023-08-06T16:06:26;17.20;99.90
21318;DHT22;10818;50.830;6.524;2023-08-06T16:11:27;17.10;99.90
21318;DHT22;10818;50.830;6.524;2023-08-06T16:16:28;17.10;99.90
21318;DHT22;10818;50.830;6.524;2023-08-06T16:21:28;17.00;99.90
21318;DHT22;10818;50.830;6.524;2023-08-06T16:26:29;16.80;99.90
21318;DHT22;10818;50.830;6.524;2023-08-06T16:31:31;16.80;99.90
21318;DHT22;10818;50.830;6.524;2023-08-06T16:36:31;16.70;99.90
21318;DHT22;10818;50.830;6.524;2023-08-06T16:41:31;16.50;99.90
21318;DHT22;10818;50.830;6.524;2023-08-06T16:46:32;16.40;99.90
21318;DHT22;10818;50.830;6.524;2023-08-06T16:51:34;16.30;99.90
21318;DHT22;10818;50.830;6.524;2023-08-06T16:56:35;16.10;99.90
21318;DHT22;10818;50.830;6.524;2023-08-06T17:01:35;16.00;99.90
21318;DHT22;10818;50.830;6.524;2023-08-06T17:06:39;16.00;99.90
21318;DHT22;10818;50.830;6.524;2023-08-06T17:11:39;15.80;99.90
21318;DHT22;10818;50.830;6.524;2023-08-06T17:16:40;15.80;99.90
21318;DHT22;10818;50.830;6.524;2023-08-06T17:21:40;15.80;99.90
21318;DHT22;10818;50.830;6.524;2023-08-06T17:26:41;15.70;99.90
21318;DHT22;10818;50.830;6.524;2023-08-06T17:31:41;15.70;99.90
21318;DHT22;10818;50.830;6.524;2023-08-06T17:36:42;15.60;99.90
21318;DHT22;10818;50.830;6.524;2023-08-06T17:41:42;15.50;99.90
21318;DHT22;10818;50.830;6.524;2023-08-06T17:46:43;15.50;99.90
21318;DHT22;10818;50.830;6.524;2023-08-06T17:51:43;15.60;99.90
21318;DHT22;10818;50.830;6.524;2023-08-06T17:56:44;15.60;99.90
21318;DHT22;10818;50.830;6.524;2023-08-06T18:01:45;15.50;99.90
21318;DHT22;10818;50.830;6.524;2023-08-06T18:06:45;15.30;99.90
21318;DHT22;10818;50.830;6.524;2023-08-06T18:11:46;15.30;99.90
21318;DHT22;10818;50.830;6.524;2023-08-06T18:16:46;15.20;99.90
21318;DHT22;10818;50.830;6.524;2023-08-06T18:21:47;15.20;99.90
21318;DHT22;10818;50.830;6.524;2023-08-06T18:26:47;15.20;99.90
21318;DHT22;10818;50.830;6.524;2023-08-06T18:31:48;15.20;99.90
21318;DHT22;10818;50.830;6.524;2023-08-06T18:36:48;15.20;99.90
21318;DHT22;10818;50.830;6.524;2023-08-06T18:41:49;15.10;99.90
21318;DHT22;10818;50.830;6.524;2023-08-06T18:46:50;15.00;99.90
21318;DHT22;10818;50.830;6.524;2023-08-06T18:51:51;14.90;99.90
21318;DHT22;10818;50.830;6.524;2023-08-06T18:56:51;14.90;99.90
21318;DHT22;10818;50.830;6.524;2023-08-06T19:01:52;14.80;99.90
21318;DHT22;10818;50.830;6.524;2023-08-06T19:06:52;15.00;99.90
21318;DHT22;10818;50.830;6.524;2023-08-06T19:11:53;14.90;99.90
21318;DHT22;10818;50.830;6.524;2023-08-06T19:16:53;14.90;99.90
21318;DHT22;10818;50.830;6.524;2023-08-06T19:21:56;14.80;99.90
21318;DHT22;10818;50.830;6.524;2023-08-06T19:26:57;14.80;99.90
21318;DHT22;10818;50.830;6.524;2023-08-06T19:31:57;14.80;99.90
21318;DHT22;10818;50.830;6.524;2023-08-06T19:36:57;14.90;99.90
21318;DHT22;10818;50.830;6.524;2023-08-06T19:41:58;14.80;99.90
21318;DHT22;10818;50.830;6.524;2023-08-06T19:46:58;14.80;99.90
21318;DHT22;10818;50.830;6.524;2023-08-06T19:51:59;14.70;99.90
21318;DHT22;10818;50.830;6.524;2023-08-06T19:56:59;14.60;99.90
21318;DHT22;10818;50.830;6.524;2023-08-06T20:02:00;14.60;99.90
21318;DHT22;10818;50.830;6.524;2023-08-06T20:07:00;14.60;99.90
21318;DHT22;10818;50.830;6.524;2023-08-06T20:12:01;14.50;99.90
21318;DHT22;10818;50.830;6.524;2023-08-06T20:17:01;14.40;99.90
21318;DHT22;10818;50.830;6.524;2023-08-06T20:22:02;14.50;99.90
21318;DHT22;10818;50.830;6.524;2023-08-06T20:27:02;14.50;99.90
21318;DHT22;10818;50.830;6.524;2023-08-06T20:32:03;14.50;99.90
21318;DHT22;10818;50.830;6.524;2023-08-06T20:37:03;14.60;99.90
21318;DHT22;10818;50.830;6.524;2023-08-06T20:42:04;14.70;99.90
21318;DHT22;10818;50.830;6.524;2023-08-06T20:47:04;14.60;99.90
21318;DHT22;10818;50.830;6.524;2023-08-06T20:52:05;14.50;99.90
21318;DHT22;10818;50.830;6.524;2023-08-06T20:57:06;14.50;99.90
21318;DHT22;10818;50.830;6.524;2023-08-06T21:02:06;14.50;99.90
21318;DHT22;10818;50.830;6.524;2023-08-06T21:07:07;14.50;99.90
21318;DHT22;10818;50.830;6.524;2023-08-06T21:12:07;14.40;99.90
21318;DHT22;10818;50.830;6.524;2023-08-06T21:17:08;14.30;99.90
21318;DHT22;10818;50.830;6.524;2023-08-06T21:22:08;14.40;99.90
21318;DHT22;10818;50.830;6.524;2023-08-06T21:27:10;14.30;99.90
21318;DHT22;10818;50.830;6.524;2023-08-06T21:32:10;14.30;99.90
21318;DHT22;10818;50.830;6.524;2023-08-06T21:37:11;14.30;99.90
21318;DHT22;10818;50.830;6.524;2023-08-06T21:42:11;14.20;99.90
21318;DHT22;10818;50.830;6.524;2023-08-06T21:47:12;14.20;99.90
21318;DHT22;10818;50.830;6.524;2023-08-06T21:52:12;14.10;99.90
21318;DHT22;10818;50.830;6.524;2023-08-06T21:57:12;14.40;99.90
21318;DHT22;10818;50.830;6.524;2023-08-06T22:02:13;14.30;99.90
21318;DHT22;10818;50.830;6.524;2023-08-06T22:07:13;14.40;99.90
21318;DHT22;10818;50.830;6.524;2023-08-06T22:12:14;14.30;99.90
21318;DHT22;10818;50.830;6.524;2023-08-06T22:17:14;14.30;99.90
21318;DHT22;10818;50.830;6.524;2023-08-06T22:22:15;14.30;99.90
21318;DHT22;10818;50.830;6.524;2023-08-06T22:27:15;14.30;99.90
21318;DHT22;10818;50.830;6.524;2023-08-06T22:32:15;14.30;99.90
21318;DHT22;10818;50.830;6.524;2023-08-06T22:37:16;14.30;99.90
21318;DHT22;10818;50.830;6.524;2023-08-06T22:42:16;14.30;99.90
21318;DHT22;10818;50.830;6.524;2023-08-06T22:47:17;14.30;99.90
21318;DHT22;10818;50.830;6.524;2023-08-06T22:52:18;14.30;99.90
21318;DHT22;10818;50.830;6.524;2023-08-06T22:57:18;14.40;99.90
21318;DHT22;10818;50.830;6.524;2023-08-06T23:02:19;14.30;99.90
21318;DHT22;10818;50.830;6.524;2023-08-06T23:07:19;14.30;99.90
21318;DHT22;10818;50.830;6.524;2023-08-06T23:12:20;14.20;99.90
21318;DHT22;10818;50.830;6.524;2023-08-06T23:17:20;14.20;99.90
21318;DHT22;10818;50.830;6.524;2023-08-06T23:22:20;14.30;99.90
21318;DHT22;10818;50.830;6.524;2023-08-06T23:27:21;14.30;99.90
21318;DHT22;10818;50.830;6.524;2023-08-06T23:32:21;14.30;99.90
21318;DHT22;10818;50.830;6.524;2023-08-06T23:37:22;14.30;99.90
21318;DHT22;10818;50.830;6.524;2023-08-06T23:42:22;14.30;99.90
21318;DHT22;10818;50.830;6.524;2023-08-06T23:47:23;14.40;99.90
21318;DHT22;10818;50.830;6.524;2023-08-06T23:52:24;14.30;99.90
21318;DHT22;10818;50.830;6.524;2023-08-06T23:57:24;14.30;99.90
